Time;durP1;ratioP1;P1;durP2;ratioP2;P2;SDS_P1;SDS_P2;PMS_P1;PMS_P2;Temp;Humidity;BMP_temperature;BMP_pressure;BME280_temperature;BME280_humidity;BME280_pressure;Samples;Min_cycle;Max_cycle;Signal;HPM_P1;HPM_P2
2023/05/18 00:00:58;;;;;;;8.13;2.25;;;;;;;;;;5051585;28;20021;-63
2023/05/18 00:03:23;;;;;;;17.05;2.92;;;;;;;;;;5046378;28;20103;-64
2023/05/18 00:05:48;;;;;;;12.75;2.88;;;;;;;;;;5047506;28;20511;-62
2023/05/18 00:08:13;;;;;;;12.45;2.33;;;;;;;;;;5051135;28;20021;-64
2023/05/18 00:10:39;;;;;;;9.18;2.17;;;;;;;;;;5051115;28;20027;-63
2023/05/18 00:13:07;;;;;;;6.65;1.90;;;;;;;;;;5058105;28;20024;-63
2023/05/18 00:15:32;;;;;;;7.70;1.92;;;;;;;;;;5052639;28;20035;-65
2023/05/18 00:17:58;;;;;;;11.75;2.67;;;;;;;;;;5051431;28;20020;-62
2023/05/18 00:20:25;;;;;;;12.88;2.03;;;;;;;;;;5051472;28;20022;-64
2023/05/18 00:22:50;;;;;;;11.38;2.10;;;;;;;;;;5052997;28;20386;-61
2023/05/18 00:25:15;;;;;;;9.65;2.30;;;;;;;;;;5052960;28;20706;-62
2023/05/18 00:27:41;;;;;;;9.52;1.75;;;;;;;;;;5059950;28;20046;-62
2023/05/18 00:30:06;;;;;;;14.85;2.40;;;;;;;;;;5053037;28;20032;-62
2023/05/18 00:32:32;;;;;;;13.38;2.33;;;;;;;;;;5049656;28;20025;-62
2023/05/18 00:34:57;;;;;;;12.57;2.28;;;;;;;;;;5050392;28;20052;-60
2023/05/18 00:37:22;;;;;;;10.27;2.15;;;;;;;;;;5050432;28;20025;-62
2023/05/18 00:39:47;;;;;;;10.95;2.22;;;;;;;;;;5050948;28;20462;-62
2023/05/18 00:42:12;;;;;;;10.13;2.17;;;;;;;;;;5049006;28;20017;-63
2023/05/18 00:44:38;;;;;;;7.28;2.20;;;;;;;;;;5049542;28;20402;-63
2023/05/18 00:47:03;;;;;;;6.30;1.90;;;;;;;;;;5049147;28;20025;-63
2023/05/18 00:49:28;;;;;;;8.68;2.58;;;;;;;;;;5052660;28;20028;-61
2023/05/18 00:51:54;;;;;;;8.45;1.88;;;;;;;;;;5050125;28;20072;-64
2023/05/18 00:54:19;;;;;;;12.02;2.35;;;;;;;;;;5050275;28;20390;-63
2023/05/18 00:56:47;;;;;;;10.27;2.33;;;;;;;;;;5050292;28;20036;-64
2023/05/18 00:59:12;;;;;;;7.75;1.92;;;;;;;;;;5050941;28;20104;-63
2023/05/18 01:01:42;;;;;;;8.55;2.10;;;;;;;;;;5050615;28;20493;-63
2023/05/18 01:04:08;;;;;;;8.65;2.10;;;;;;;;;;5061098;22;20048;-66
2023/05/18 01:06:36;;;;;;;7.65;2.03;;;;;;;;;;5048283;28;20035;-70
2023/05/18 01:09:03;;;;;;;7.60;2.10;;;;;;;;;;5044779;28;20128;-68
2023/05/18 01:11:36;;;;;;;9.48;2.08;;;;;;;;;;5048029;28;20017;-66
2023/05/18 01:14:22;;;;;;;21.23;2.42;;;;;;;;;;5037131;28;20095;-65
2023/05/18 01:16:54;;;;;;;9.68;1.83;;;;;;;;;;5027807;28;20052;-68
2023/05/18 01:19:38;;;;;;;8.43;2.05;;;;;;;;;;5048463;28;20016;-69
2023/05/18 01:22:03;;;;;;;8.23;2.58;;;;;;;;;;5036680;28;20029;-68
2023/05/18 01:24:44;;;;;;;10.20;1.95;;;;;;;;;;5047811;28;20383;-69
2023/05/18 01:27:13;;;;;;;15.20;2.80;;;;;;;;;;5048209;28;20017;-67
2023/05/18 01:29:39;;;;;;;11.35;2.00;;;;;;;;;;5047816;28;20040;-68
2023/05/18 01:32:06;;;;;;;6.68;1.70;;;;;;;;;;5039519;28;20025;-68
2023/05/18 01:34:31;;;;;;;10.13;3.20;;;;;;;;;;5047188;28;20017;-68
2023/05/18 01:36:56;;;;;;;3.75;1.73;;;;;;;;;;5047830;28;20043;-65
2023/05/18 01:39:21;;;;;;;8.40;2.20;;;;;;;;;;5048263;28;20087;-69
2023/05/18 01:42:07;;;;;;;6.70;1.77;;;;;;;;;;5047714;28;20107;-66
2023/05/18 01:44:38;;;;;;;7.63;2.05;;;;;;;;;;5045924;28;20033;-64
2023/05/18 01:47:09;;;;;;;13.60;2.00;;;;;;;;;;5047860;28;20079;-67
2023/05/18 01:49:36;;;;;;;8.90;2.33;;;;;;;;;;5047627;28;20372;-68
2023/05/18 01:52:03;;;;;;;8.48;2.10;;;;;;;;;;5047477;28;20053;-65
2023/05/18 01:54:29;;;;;;;16.92;2.75;;;;;;;;;;5045683;28;20104;-68
2023/05/18 01:56:55;;;;;;;12.27;2.40;;;;;;;;;;5047122;28;20518;-67
2023/05/18 01:59:22;;;;;;;8.88;2.33;;;;;;;;;;5047651;28;20020;-64
2023/05/18 02:01:48;;;;;;;10.13;2.53;;;;;;;;;;5047989;28;20021;-65
2023/05/18 02:04:13;;;;;;;7.68;2.00;;;;;;;;;;5040428;28;20037;-69
2023/05/18 02:06:38;;;;;;;6.88;2.13;;;;;;;;;;5047806;28;20083;-68
2023/05/18 02:09:04;;;;;;;5.68;2.10;;;;;;;;;;5046942;28;20021;-65
2023/05/18 02:11:29;;;;;;;9.82;2.47;;;;;;;;;;5046855;28;20029;-67
2023/05/18 02:13:55;;;;;;;12.70;2.03;;;;;;;;;;5046455;28;20455;-68
2023/05/18 02:16:20;;;;;;;5.68;2.00;;;;;;;;;;5047654;28;20078;-65
2023/05/18 02:18:45;;;;;;;10.20;2.33;;;;;;;;;;5047342;28;20458;-67
2023/05/18 02:21:12;;;;;;;5.80;2.30;;;;;;;;;;5047789;28;20052;-64
2023/05/18 02:23:37;;;;;;;6.72;2.13;;;;;;;;;;5046330;28;20021;-67
2023/05/18 02:26:02;;;;;;;10.90;2.00;;;;;;;;;;5047245;28;20028;-65
2023/05/18 02:28:28;;;;;;;7.43;2.28;;;;;;;;;;5047417;28;20043;-68
2023/05/18 02:30:53;;;;;;;10.48;2.72;;;;;;;;;;5047548;28;20078;-68
2023/05/18 02:33:24;;;;;;;7.93;2.35;;;;;;;;;;5046703;28;20017;-68
2023/05/18 02:35:50;;;;;;;9.50;2.33;;;;;;;;;;5042235;28;20029;-65
2023/05/18 02:38:15;;;;;;;7.80;2.42;;;;;;;;;;5046853;28;20332;-69
2023/05/18 02:40:40;;;;;;;11.27;2.28;;;;;;;;;;5047078;28;20028;-65
2023/05/18 02:43:05;;;;;;;10.65;2.33;;;;;;;;;;5046914;28;20021;-67
2023/05/18 02:45:31;;;;;;;13.43;3.00;;;;;;;;;;5046703;28;20028;-66
2023/05/18 02:47:56;;;;;;;9.73;2.92;;;;;;;;;;5047461;28;20081;-69
2023/05/18 02:50:21;;;;;;;6.40;2.38;;;;;;;;;;5046921;28;20024;-68
2023/05/18 02:52:48;;;;;;;11.93;3.60;;;;;;;;;;5047119;28;20013;-69
2023/05/18 02:55:14;;;;;;;5.47;2.40;;;;;;;;;;5044675;28;20454;-68
2023/05/18 02:57:45;;;;;;;15.85;3.75;;;;;;;;;;5047487;28;20551;-64
2023/05/18 03:00:11;;;;;;;9.73;2.20;;;;;;;;;;5046956;28;20121;-67
2023/05/18 03:02:37;;;;;;;9.80;2.53;;;;;;;;;;5043449;28;20502;-69
2023/05/18 03:05:04;;;;;;;11.45;2.90;;;;;;;;;;5040858;28;20540;-66
2023/05/18 03:07:31;;;;;;;8.82;2.28;;;;;;;;;;5046798;28;20039;-64
2023/05/18 03:09:57;;;;;;;12.75;2.45;;;;;;;;;;5043134;28;20621;-67
2023/05/18 03:12:22;;;;;;;12.57;2.72;;;;;;;;;;5046964;28;20168;-67
2023/05/18 03:14:47;;;;;;;13.27;2.40;;;;;;;;;;5045883;28;20409;-69
2023/05/18 03:17:13;;;;;;;9.18;2.72;;;;;;;;;;5047223;28;20108;-64
2023/05/18 03:19:39;;;;;;;12.30;2.78;;;;;;;;;;5046782;28;20044;-68
2023/05/18 03:22:04;;;;;;;8.18;2.33;;;;;;;;;;5039654;28;20440;-69
2023/05/18 03:24:39;;;;;;;6.20;2.40;;;;;;;;;;5048961;28;20017;-64
2023/05/18 03:27:05;;;;;;;7.88;2.38;;;;;;;;;;5050225;28;20025;-68
2023/05/18 03:29:30;;;;;;;10.13;2.20;;;;;;;;;;5050502;28;20032;-67
2023/05/18 03:31:55;;;;;;;16.10;3.03;;;;;;;;;;5042427;28;20032;-67
2023/05/18 03:34:20;;;;;;;10.85;2.15;;;;;;;;;;5049426;28;20044;-66
2023/05/18 03:36:46;;;;;;;15.52;3.20;;;;;;;;;;5050107;28;20020;-68
2023/05/18 03:39:11;;;;;;;18.20;3.10;;;;;;;;;;5050311;28;20021;-68
2023/05/18 03:41:37;;;;;;;8.82;2.58;;;;;;;;;;5049896;28;20016;-68
2023/05/18 03:44:02;;;;;;;15.45;2.28;;;;;;;;;;5048860;28;20033;-66
2023/05/18 03:46:27;;;;;;;13.32;2.90;;;;;;;;;;5050110;28;20029;-68
2023/05/18 03:48:55;;;;;;;17.55;2.75;;;;;;;;;;5050350;28;20100;-64
2023/05/18 03:51:20;;;;;;;10.77;2.90;;;;;;;;;;5050056;28;20112;-66
2023/05/18 03:53:46;;;;;;;9.35;2.67;;;;;;;;;;5043445;28;20116;-68
2023/05/18 03:56:12;;;;;;;11.43;2.50;;;;;;;;;;5047064;28;20271;-68
2023/05/18 03:58:37;;;;;;;12.30;2.58;;;;;;;;;;5050221;28;20025;-69
2023/05/18 04:01:03;;;;;;;11.40;2.65;;;;;;;;;;5050642;28;20020;-66
2023/05/18 04:03:29;;;;;;;14.80;2.92;;;;;;;;;;5054174;28;20029;-67
2023/05/18 04:05:54;;;;;;;9.35;2.58;;;;;;;;;;5053176;28;20025;-69
2023/05/18 04:08:20;;;;;;;13.27;3.00;;;;;;;;;;5062581;28;21081;-65
2023/05/18 04:10:45;;;;;;;9.80;2.80;;;;;;;;;;5053482;28;20494;-67
2023/05/18 04:13:11;;;;;;;9.90;2.88;;;;;;;;;;5050163;28;20021;-68
2023/05/18 04:15:36;;;;;;;7.03;2.40;;;;;;;;;;5048102;28;20127;-67
2023/05/18 04:18:02;;;;;;;11.77;3.45;;;;;;;;;;5050354;28;20374;-65
2023/05/18 04:20:28;;;;;;;9.60;2.67;;;;;;;;;;5049519;28;20029;-68
2023/05/18 04:22:54;;;;;;;14.77;2.50;;;;;;;;;;5049084;28;20023;-68
2023/05/18 04:25:19;;;;;;;19.25;3.75;;;;;;;;;;5048536;28;20029;-67
2023/05/18 04:27:45;;;;;;;8.02;2.47;;;;;;;;;;5049459;28;20100;-69
2023/05/18 04:30:10;;;;;;;13.88;3.28;;;;;;;;;;5049371;28;20075;-67
2023/05/18 04:32:36;;;;;;;10.90;3.50;;;;;;;;;;5049638;28;20386;-67
2023/05/18 04:35:05;;;;;;;12.20;2.92;;;;;;;;;;5047607;28;20097;-66
2023/05/18 04:37:32;;;;;;;12.63;3.15;;;;;;;;;;5049121;28;20013;-68
2023/05/18 04:40:00;;;;;;;11.30;3.80;;;;;;;;;;5048932;28;20066;-67
2023/05/18 04:42:26;;;;;;;9.43;3.45;;;;;;;;;;5048896;28;20022;-68
2023/05/18 04:44:53;;;;;;;12.90;2.92;;;;;;;;;;5048475;28;20017;-69
2023/05/18 04:47:20;;;;;;;10.13;2.88;;;;;;;;;;5049379;28;20021;-69
2023/05/18 04:49:46;;;;;;;12.55;3.22;;;;;;;;;;5049550;28;20077;-68
2023/05/18 04:52:11;;;;;;;12.48;3.10;;;;;;;;;;5048482;28;20028;-67
2023/05/18 04:54:36;;;;;;;10.75;3.03;;;;;;;;;;5045341;28;20058;-69
2023/05/18 04:57:02;;;;;;;12.68;2.92;;;;;;;;;;5048966;28;20169;-67
2023/05/18 04:59:27;;;;;;;12.65;2.83;;;;;;;;;;5048853;28;20108;-68
2023/05/18 05:01:53;;;;;;;12.70;3.08;;;;;;;;;;5048888;28;20036;-68
2023/05/18 05:04:19;;;;;;;20.58;2.42;;;;;;;;;;5040007;28;20028;-67
2023/05/18 05:06:45;;;;;;;10.75;2.80;;;;;;;;;;5048195;28;20177;-68
2023/05/18 05:09:12;;;;;;;15.13;3.00;;;;;;;;;;5045086;28;20553;-67
2023/05/18 05:11:38;;;;;;;10.57;3.95;;;;;;;;;;5049123;28;20029;-67
2023/05/18 05:14:03;;;;;;;13.88;2.80;;;;;;;;;;5048579;28;20024;-68
2023/05/18 05:16:28;;;;;;;8.88;2.60;;;;;;;;;;5048231;28;20435;-66
2023/05/18 05:18:53;;;;;;;8.32;2.50;;;;;;;;;;5052172;28;20017;-69
2023/05/18 05:21:19;;;;;;;9.15;1.95;;;;;;;;;;5050454;28;20104;-66
2023/05/18 05:23:44;;;;;;;10.50;2.13;;;;;;;;;;5047357;28;20013;-67
2023/05/18 05:26:10;;;;;;;7.78;2.30;;;;;;;;;;5047721;28;20550;-68
2023/05/18 05:28:35;;;;;;;6.30;2.00;;;;;;;;;;5048390;28;20489;-67
2023/05/18 05:31:00;;;;;;;8.25;2.35;;;;;;;;;;5048373;28;20029;-69
2023/05/18 05:33:25;;;;;;;8.38;2.35;;;;;;;;;;5053594;28;20055;-68
2023/05/18 05:35:50;;;;;;;9.38;2.53;;;;;;;;;;5047596;28;20448;-67
2023/05/18 05:38:16;;;;;;;10.85;2.00;;;;;;;;;;5048115;28;20084;-69
2023/05/18 05:40:41;;;;;;;5.95;2.45;;;;;;;;;;5048231;28;20016;-68
2023/05/18 05:43:06;;;;;;;14.52;2.75;;;;;;;;;;5052516;28;20420;-67
2023/05/18 05:45:31;;;;;;;6.35;1.60;;;;;;;;;;5049528;28;20424;-68
2023/05/18 05:47:57;;;;;;;12.45;2.35;;;;;;;;;;5048596;28;20074;-66
2023/05/18 05:50:22;;;;;;;9.45;2.42;;;;;;;;;;5048874;28;20131;-68
2023/05/18 05:52:47;;;;;;;6.03;1.75;;;;;;;;;;5050713;28;20036;-67
2023/05/18 05:55:12;;;;;;;10.77;2.20;;;;;;;;;;5054879;28;20490;-69
2023/05/18 05:57:41;;;;;;;12.38;2.35;;;;;;;;;;5056798;28;20069;-66
2023/05/18 06:00:09;;;;;;;15.63;2.38;;;;;;;;;;5050461;28;20017;-68
2023/05/18 06:02:34;;;;;;;6.18;1.92;;;;;;;;;;5046087;28;20048;-69
2023/05/18 06:04:59;;;;;;;17.00;2.30;;;;;;;;;;5049552;28;20075;-67
2023/05/18 06:07:24;;;;;;;14.70;3.10;;;;;;;;;;5042765;28;20059;-65
2023/05/18 06:09:50;;;;;;;12.27;1.70;;;;;;;;;;5043938;28;20032;-66
2023/05/18 06:12:15;;;;;;;10.73;2.25;;;;;;;;;;5047323;28;20013;-69
2023/05/18 06:14:40;;;;;;;6.80;1.67;;;;;;;;;;5054429;28;20082;-66
2023/05/18 06:17:06;;;;;;;8.38;1.60;;;;;;;;;;5047638;28;20163;-68
2023/05/18 06:19:32;;;;;;;11.52;2.35;;;;;;;;;;5046647;28;20177;-69
2023/05/18 06:21:57;;;;;;;12.82;2.05;;;;;;;;;;5059870;28;20024;-67
2023/05/18 06:24:22;;;;;;;9.32;2.10;;;;;;;;;;5052994;28;20427;-70
2023/05/18 06:26:48;;;;;;;12.48;2.13;;;;;;;;;;5052360;28;20401;-68
2023/05/18 06:29:13;;;;;;;16.13;2.10;;;;;;;;;;5046288;28;20097;-68
2023/05/18 06:31:39;;;;;;;9.15;1.67;;;;;;;;;;5047597;28;20093;-70
2023/05/18 06:34:04;;;;;;;7.72;1.88;;;;;;;;;;5046550;28;20131;-69
2023/05/18 06:36:30;;;;;;;9.98;2.25;;;;;;;;;;5046960;28;20040;-69
2023/05/18 06:38:56;;;;;;;10.75;2.17;;;;;;;;;;5047416;28;20111;-67
2023/05/18 06:41:21;;;;;;;15.25;2.78;;;;;;;;;;5047282;28;20100;-69
2023/05/18 06:43:46;;;;;;;11.05;2.13;;;;;;;;;;5034705;28;20028;-67
2023/05/18 06:46:18;;;;;;;12.10;2.50;;;;;;;;;;5035475;28;20036;-70
2023/05/18 06:48:44;;;;;;;15.93;2.53;;;;;;;;;;5034866;28;20658;-68
2023/05/18 06:51:09;;;;;;;9.88;2.63;;;;;;;;;;5035507;28;20495;-69
2023/05/18 06:53:35;;;;;;;10.07;2.47;;;;;;;;;;5035142;28;20061;-69
2023/05/18 06:56:00;;;;;;;9.18;2.10;;;;;;;;;;5035755;28;20378;-68
2023/05/18 06:58:25;;;;;;;6.60;2.65;;;;;;;;;;5035547;28;20080;-69
2023/05/18 07:00:52;;;;;;;9.35;2.53;;;;;;;;;;5038355;28;20043;-66
2023/05/18 07:03:18;;;;;;;9.90;2.38;;;;;;;;;;5052658;22;20114;-65
2023/05/18 07:05:43;;;;;;;13.10;2.45;;;;;;;;;;5040011;28;20703;-64
2023/05/18 07:08:08;;;;;;;15.68;2.45;;;;;;;;;;5039448;28;20033;-66
2023/05/18 07:10:34;;;;;;;10.75;1.83;;;;;;;;;;5040810;28;20029;-63
2023/05/18 07:12:59;;;;;;;13.90;2.50;;;;;;;;;;5040433;28;20134;-65
2023/05/18 07:15:25;;;;;;;8.48;2.03;;;;;;;;;;5058955;28;20036;-64
2023/05/18 07:17:50;;;;;;;8.35;1.98;;;;;;;;;;5058938;28;20024;-63
2023/05/18 07:20:16;;;;;;;10.57;1.80;;;;;;;;;;5069195;28;20020;-65
2023/05/18 07:22:41;;;;;;;10.52;2.30;;;;;;;;;;5075679;28;20016;-65
2023/05/18 07:25:06;;;;;;;11.85;2.50;;;;;;;;;;5072666;28;20117;-61
2023/05/18 07:27:33;;;;;;;6.53;1.83;;;;;;;;;;5073153;28;20113;-63
2023/05/18 07:29:58;;;;;;;11.23;2.40;;;;;;;;;;5074256;28;20021;-64
2023/05/18 07:32:23;;;;;;;13.63;2.08;;;;;;;;;;5071692;28;20032;-64
2023/05/18 07:34:48;;;;;;;14.70;3.13;;;;;;;;;;5071949;28;20028;-63
2023/05/18 07:37:14;;;;;;;13.23;2.38;;;;;;;;;;5079287;28;20055;-62
2023/05/18 07:39:39;;;;;;;7.38;2.13;;;;;;;;;;5072342;28;20481;-64
2023/05/18 07:42:05;;;;;;;6.55;1.95;;;;;;;;;;5070209;28;20016;-63
2023/05/18 07:44:30;;;;;;;6.70;1.95;;;;;;;;;;5070986;28;20036;-64
2023/05/18 07:46:55;;;;;;;9.32;2.17;;;;;;;;;;5070571;28;20401;-62
2023/05/18 07:49:22;;;;;;;10.35;1.95;;;;;;;;;;5072308;28;20466;-64
2023/05/18 07:51:47;;;;;;;6.60;1.95;;;;;;;;;;5071694;28;20023;-65
2023/05/18 07:54:13;;;;;;;8.50;1.77;;;;;;;;;;5078257;28;20028;-65
2023/05/18 07:56:39;;;;;;;10.68;2.33;;;;;;;;;;5071159;28;20016;-65
2023/05/18 07:59:05;;;;;;;11.90;2.22;;;;;;;;;;5070569;28;20103;-64
2023/05/18 08:01:30;;;;;;;7.07;1.58;;;;;;;;;;5071433;28;20016;-64
2023/05/18 08:03:56;;;;;;;7.63;1.67;;;;;;;;;;5070274;28;20029;-63
2023/05/18 08:06:21;;;;;;;6.55;1.95;;;;;;;;;;5071335;28;20016;-64
2023/05/18 08:08:46;;;;;;;5.20;1.67;;;;;;;;;;5070679;28;20103;-65
2023/05/18 08:11:12;;;;;;;12.23;2.10;;;;;;;;;;5069704;28;20044;-66
2023/05/18 08:13:37;;;;;;;11.57;1.67;;;;;;;;;;5070188;28;20028;-68
2023/05/18 08:16:02;;;;;;;9.57;2.13;;;;;;;;;;5069929;28;20044;-61
2023/05/18 08:18:27;;;;;;;10.38;2.45;;;;;;;;;;5071769;28;20035;-64
2023/05/18 08:20:54;;;;;;;10.27;1.77;;;;;;;;;;5070100;28;20478;-64
2023/05/18 08:23:19;;;;;;;8.95;1.90;;;;;;;;;;5068973;28;20073;-63
2023/05/18 08:25:45;;;;;;;6.78;2.30;;;;;;;;;;5070196;28;20542;-63
2023/05/18 08:28:10;;;;;;;7.82;1.73;;;;;;;;;;5071170;28;20016;-62
2023/05/18 08:30:35;;;;;;;10.48;2.25;;;;;;;;;;5070542;28;20086;-64
2023/05/18 08:33:01;;;;;;;7.78;1.80;;;;;;;;;;5071154;28;20013;-66
2023/05/18 08:35:27;;;;;;;7.13;1.88;;;;;;;;;;5070463;28;20569;-63
2023/05/18 08:37:52;;;;;;;10.02;1.52;;;;;;;;;;5071231;28;20104;-62
2023/05/18 08:40:18;;;;;;;7.88;1.95;;;;;;;;;;5070637;28;20114;-63
2023/05/18 08:42:46;;;;;;;11.10;2.05;;;;;;;;;;5070595;28;20016;-58
2023/05/18 08:45:22;;;;;;;15.18;1.77;;;;;;;;;;5064100;28;20026;-61
2023/05/18 08:47:53;;;;;;;7.97;1.67;;;;;;;;;;5056009;28;20032;-65
2023/05/18 08:50:19;;;;;;;14.30;1.60;;;;;;;;;;5069268;28;20013;-64
2023/05/18 08:52:50;;;;;;;9.07;1.95;;;;;;;;;;5069742;28;20024;-64
2023/05/18 08:55:16;;;;;;;7.45;2.10;;;;;;;;;;5064613;28;20607;-63
2023/05/18 08:57:42;;;;;;;12.38;1.70;;;;;;;;;;5070474;28;20012;-63
2023/05/18 09:00:08;;;;;;;6.95;1.60;;;;;;;;;;5069815;28;20020;-65
2023/05/18 09:02:35;;;;;;;7.45;1.52;;;;;;;;;;5068497;28;20021;-62
2023/05/18 09:05:01;;;;;;;7.85;1.40;;;;;;;;;;5069050;28;20029;-64
2023/05/18 09:07:27;;;;;;;12.20;1.80;;;;;;;;;;5070097;28;20641;-62
2023/05/18 09:09:53;;;;;;;10.90;2.53;;;;;;;;;;5070261;28;20103;-67
2023/05/18 09:12:21;;;;;;;10.32;1.60;;;;;;;;;;5068136;28;20506;-63
2023/05/18 09:14:47;;;;;;;12.32;2.08;;;;;;;;;;5067332;28;20020;-61
2023/05/18 09:17:12;;;;;;;5.28;1.63;;;;;;;;;;5070754;28;20027;-64
2023/05/18 09:19:37;;;;;;;10.65;1.90;;;;;;;;;;5071158;28;20103;-64
2023/05/18 09:22:03;;;;;;;7.88;1.95;;;;;;;;;;5070221;28;20020;-65
2023/05/18 09:24:28;;;;;;;8.65;2.65;;;;;;;;;;5069674;28;20021;-63
2023/05/18 09:26:54;;;;;;;9.02;1.70;;;;;;;;;;5070339;28;20035;-61
2023/05/18 09:29:20;;;;;;;6.90;1.90;;;;;;;;;;5069734;28;20020;-65
2023/05/18 09:31:46;;;;;;;8.02;1.83;;;;;;;;;;5070237;28;20021;-66
2023/05/18 09:34:11;;;;;;;8.93;1.88;;;;;;;;;;5070040;28;20019;-66
2023/05/18 09:36:37;;;;;;;12.93;2.33;;;;;;;;;;5070334;28;20029;-64
2023/05/18 09:39:07;;;;;;;13.05;1.60;;;;;;;;;;5069572;28;20662;-63
2023/05/18 09:41:32;;;;;;;7.38;1.95;;;;;;;;;;5069551;28;20012;-65
2023/05/18 09:43:57;;;;;;;10.93;1.75;;;;;;;;;;5069075;28;20155;-64
2023/05/18 09:46:22;;;;;;;8.85;1.88;;;;;;;;;;5068467;28;20393;-65
2023/05/18 09:48:50;;;;;;;9.85;1.88;;;;;;;;;;5070081;28;20016;-64
2023/05/18 09:51:16;;;;;;;6.97;1.88;;;;;;;;;;5070116;28;20024;-62
2023/05/18 09:53:46;;;;;;;6.45;1.42;;;;;;;;;;5062585;28;20088;-65
2023/05/18 09:56:13;;;;;;;10.98;1.70;;;;;;;;;;5069320;28;20409;-63
2023/05/18 09:58:39;;;;;;;10.70;1.85;;;;;;;;;;5069043;28;20044;-63
2023/05/18 10:01:05;;;;;;;9.40;1.95;;;;;;;;;;5069635;28;20051;-62
2023/05/18 10:03:32;;;;;;;8.32;1.83;;;;;;;;;;5066153;28;20074;-64
2023/05/18 10:06:02;;;;;;;7.25;1.50;;;;;;;;;;5069848;28;20537;-63
2023/05/18 10:08:27;;;;;;;6.93;1.60;;;;;;;;;;5068889;28;20074;-61
2023/05/18 10:10:53;;;;;;;10.18;2.53;;;;;;;;;;5067230;28;20032;-64
2023/05/18 10:13:19;;;;;;;7.60;1.67;;;;;;;;;;5067428;28;20047;-64
2023/05/18 10:15:45;;;;;;;8.93;1.42;;;;;;;;;;5068397;28;20036;-61
2023/05/18 10:18:11;;;;;;;8.38;1.60;;;;;;;;;;5069740;28;20017;-63
2023/05/18 10:20:36;;;;;;;6.65;1.75;;;;;;;;;;5069254;28;20056;-65
2023/05/18 10:23:03;;;;;;;8.73;1.98;;;;;;;;;;5067305;28;20032;-64
2023/05/18 10:25:28;;;;;;;7.95;2.05;;;;;;;;;;5068008;28;20062;-64
2023/05/18 10:27:59;;;;;;;8.50;1.77;;;;;;;;;;5069360;28;20013;-64
2023/05/18 10:30:25;;;;;;;14.73;2.15;;;;;;;;;;5068198;28;20025;-65
2023/05/18 10:32:51;;;;;;;10.98;1.55;;;;;;;;;;5069354;28;20544;-65
2023/05/18 10:35:17;;;;;;;3.90;1.55;;;;;;;;;;5070963;28;20056;-64
2023/05/18 10:37:47;;;;;;;11.00;1.60;;;;;;;;;;5072507;28;20397;-64
2023/05/18 10:40:14;;;;;;;6.97;1.50;;;;;;;;;;5071035;28;20415;-63
2023/05/18 10:42:40;;;;;;;8.73;1.65;;;;;;;;;;5071488;28;20013;-63
2023/05/18 10:45:06;;;;;;;5.93;1.65;;;;;;;;;;5071457;28;20069;-62
2023/05/18 10:47:31;;;;;;;7.70;1.60;;;;;;;;;;5072539;28;20074;-63
2023/05/18 10:50:00;;;;;;;10.05;1.63;;;;;;;;;;5072870;28;20095;-64
2023/05/18 10:52:30;;;;;;;9.85;1.38;;;;;;;;;;5072784;28;20498;-63
2023/05/18 10:54:57;;;;;;;5.88;1.40;;;;;;;;;;5065402;28;20107;-65
2023/05/18 10:57:22;;;;;;;8.88;1.52;;;;;;;;;;5072910;28;20017;-62
2023/05/18 10:59:47;;;;;;;6.63;1.40;;;;;;;;;;5072551;28;20009;-63
2023/05/18 11:02:13;;;;;;;5.53;1.42;;;;;;;;;;5071913;28;20448;-64
2023/05/18 11:04:39;;;;;;;6.18;1.65;;;;;;;;;;5069866;28;20031;-65
2023/05/18 11:07:09;;;;;;;4.40;1.20;;;;;;;;;;5072270;28;20111;-61
2023/05/18 11:09:34;;;;;;;7.50;1.75;;;;;;;;;;5051031;28;20494;-64
2023/05/18 11:12:00;;;;;;;8.63;2.05;;;;;;;;;;5070316;28;20032;-63
2023/05/18 11:14:26;;;;;;;7.50;1.35;;;;;;;;;;5071289;28;20020;-64
2023/05/18 11:16:51;;;;;;;5.05;1.52;;;;;;;;;;5071918;28;20028;-64
2023/05/18 11:19:17;;;;;;;6.28;1.58;;;;;;;;;;5073007;28;20012;-62
2023/05/18 11:21:43;;;;;;;8.35;1.50;;;;;;;;;;5072419;28;20381;-64
2023/05/18 11:24:41;;;;;;;9.13;2.45;;;;;;;;;;5071403;28;20104;-64
2023/05/18 11:27:15;;;;;;;6.22;1.48;;;;;;;;;;5027595;28;20056;-64
2023/05/18 11:29:43;;;;;;;9.55;2.58;;;;;;;;;;5072380;28;20020;-64
2023/05/18 11:32:27;;;;;;;6.85;1.48;;;;;;;;;;5072318;28;20044;-65
2023/05/18 11:34:52;;;;;;;8.45;1.95;;;;;;;;;;5072581;28;20027;-64
2023/05/18 11:37:45;;;;;;;10.25;1.70;;;;;;;;;;5059625;28;20699;-63
2023/05/18 11:40:12;;;;;;;5.78;1.58;;;;;;;;;;5073195;28;20421;-61
2023/05/18 11:42:37;;;;;;;7.03;1.48;;;;;;;;;;5073679;28;20021;-66
2023/05/18 11:45:06;;;;;;;10.27;1.40;;;;;;;;;;5070084;28;20435;-66
2023/05/18 11:47:32;;;;;;;6.85;1.95;;;;;;;;;;5071773;28;20024;-61
2023/05/18 11:49:57;;;;;;;8.65;1.40;;;;;;;;;;5072043;28;20603;-64
2023/05/18 11:52:23;;;;;;;6.78;1.27;;;;;;;;;;5070565;28;20016;-64
2023/05/18 11:54:53;;;;;;;9.65;1.65;;;;;;;;;;5064908;28;20552;-62
2023/05/18 11:57:19;;;;;;;11.10;1.50;;;;;;;;;;5071805;28;20033;-63
2023/05/18 11:59:52;;;;;;;6.80;1.52;;;;;;;;;;5071840;28;20104;-64
2023/05/18 12:02:19;;;;;;;8.10;1.83;;;;;;;;;;5070416;28;20035;-65
2023/05/18 12:04:49;;;;;;;8.27;1.52;;;;;;;;;;5069939;28;20070;-65
2023/05/18 12:07:16;;;;;;;7.32;1.85;;;;;;;;;;5071288;28;20027;-65
2023/05/18 12:09:43;;;;;;;6.63;2.25;;;;;;;;;;5071828;28;20052;-62
2023/05/18 12:12:10;;;;;;;13.73;4.53;;;;;;;;;;5068794;28;20051;-64
2023/05/18 12:14:36;;;;;;;8.27;1.92;;;;;;;;;;5070540;28;20470;-65
2023/05/18 12:17:01;;;;;;;10.70;2.47;;;;;;;;;;5071526;28;20028;-65
2023/05/18 12:19:27;;;;;;;3.70;1.40;;;;;;;;;;5072002;28;20021;-65
2023/05/18 12:21:52;;;;;;;6.35;1.70;;;;;;;;;;5070780;28;20012;-65
2023/05/18 12:24:18;;;;;;;7.15;1.50;;;;;;;;;;5068863;28;20023;-64
2023/05/18 12:26:45;;;;;;;7.65;1.95;;;;;;;;;;5071160;28;20029;-63
2023/05/18 12:29:13;;;;;;;6.78;1.52;;;;;;;;;;5070321;28;20020;-61
2023/05/18 12:31:40;;;;;;;4.93;1.40;;;;;;;;;;5070759;28;20030;-64
2023/05/18 12:34:07;;;;;;;7.85;2.13;;;;;;;;;;5070045;28;20028;-64
2023/05/18 12:36:32;;;;;;;14.00;3.10;;;;;;;;;;5071471;28;20017;-62
2023/05/18 12:38:59;;;;;;;12.15;2.67;;;;;;;;;;5069805;28;20017;-68
2023/05/18 12:41:28;;;;;;;7.95;1.80;;;;;;;;;;5070688;28;20040;-65
2023/05/18 12:43:54;;;;;;;7.55;1.88;;;;;;;;;;5060487;28;20032;-64
2023/05/18 12:46:20;;;;;;;8.38;3.22;;;;;;;;;;5071037;28;20051;-64
2023/05/18 12:48:46;;;;;;;12.05;2.00;;;;;;;;;;5071561;28;20028;-64
2023/05/18 12:51:20;;;;;;;13.95;3.33;;;;;;;;;;5071550;28;20125;-64
2023/05/18 12:53:48;;;;;;;5.72;1.55;;;;;;;;;;5064105;28;20481;-65
2023/05/18 12:56:14;;;;;;;9.95;1.60;;;;;;;;;;5069772;28;20020;-64
2023/05/18 12:58:39;;;;;;;7.53;1.60;;;;;;;;;;5070634;28;20148;-65
2023/05/18 13:01:10;;;;;;;15.32;4.38;;;;;;;;;;5070770;28;20013;-63
2023/05/18 13:03:39;;;;;;;12.35;3.92;;;;;;;;;;5075072;22;21740;-68
2023/05/18 13:06:08;;;;;;;8.95;2.10;;;;;;;;;;5028929;28;20329;-65
2023/05/18 13:08:34;;;;;;;11.15;2.75;;;;;;;;;;5029026;28;20321;-68
2023/05/18 13:11:03;;;;;;;9.57;2.63;;;;;;;;;;5027796;28;20494;-69
2023/05/18 13:13:28;;;;;;;3.03;1.35;;;;;;;;;;5026063;28;20102;-68
2023/05/18 13:15:54;;;;;;;11.43;3.67;;;;;;;;;;5008459;28;20423;-68
2023/05/18 13:18:19;;;;;;;9.98;3.25;;;;;;;;;;5008267;28;20436;-67
2023/05/18 13:20:55;;;;;;;8.98;2.83;;;;;;;;;;5010232;28;20030;-67
2023/05/18 13:23:25;;;;;;;12.60;3.75;;;;;;;;;;5025106;28;20022;-69
2023/05/18 13:25:50;;;;;;;14.82;3.85;;;;;;;;;;5026723;28;20068;-70
2023/05/18 13:28:16;;;;;;;7.43;1.33;;;;;;;;;;5028229;28;20383;-66
2023/05/18 13:30:42;;;;;;;9.18;2.08;;;;;;;;;;5010181;28;20018;-68
2023/05/18 13:33:08;;;;;;;6.65;2.22;;;;;;;;;;5009139;28;20199;-70
2023/05/18 13:35:34;;;;;;;14.15;2.63;;;;;;;;;;5008142;28;20519;-65
2023/05/18 13:37:59;;;;;;;7.32;1.90;;;;;;;;;;5008881;28;20018;-67
2023/05/18 13:40:25;;;;;;;6.00;1.77;;;;;;;;;;5008526;28;20033;-69
2023/05/18 13:42:50;;;;;;;13.18;1.92;;;;;;;;;;5020156;28;20096;-70
2023/05/18 13:45:15;;;;;;;11.43;2.53;;;;;;;;;;5009677;28;20499;-66
2023/05/18 13:47:41;;;;;;;11.57;3.75;;;;;;;;;;5007126;28;20079;-69
2023/05/18 13:50:07;;;;;;;9.77;1.63;;;;;;;;;;5007762;28;20054;-67
2023/05/18 13:52:32;;;;;;;11.27;2.42;;;;;;;;;;5006981;28;20034;-69
2023/05/18 13:54:58;;;;;;;10.85;2.75;;;;;;;;;;5001743;28;20021;-66
2023/05/18 13:57:25;;;;;;;16.90;6.32;;;;;;;;;;5008801;28;20597;-69
2023/05/18 13:59:51;;;;;;;8.00;2.42;;;;;;;;;;5008056;28;20076;-67
2023/05/18 14:02:16;;;;;;;5.90;1.20;;;;;;;;;;5008386;28;20033;-67
2023/05/18 14:04:41;;;;;;;7.03;1.67;;;;;;;;;;5007076;28;20030;-68
2023/05/18 14:07:08;;;;;;;7.90;1.88;;;;;;;;;;5008036;28;20030;-69
2023/05/18 14:09:33;;;;;;;8.00;1.70;;;;;;;;;;5008673;28;20407;-69
2023/05/18 14:11:59;;;;;;;9.23;3.42;;;;;;;;;;5007022;28;20101;-67
2023/05/18 14:14:24;;;;;;;9.55;1.98;;;;;;;;;;5007077;28;20018;-68
2023/05/18 14:16:50;;;;;;;19.58;6.43;;;;;;;;;;5008209;28;20033;-69
2023/05/18 14:19:15;;;;;;;14.10;2.42;;;;;;;;;;5008172;28;20014;-67
2023/05/18 14:21:40;;;;;;;4.65;1.67;;;;;;;;;;5008354;28;20412;-70
2023/05/18 14:24:07;;;;;;;9.30;2.58;;;;;;;;;;5007020;28;20282;-68
2023/05/18 14:26:35;;;;;;;12.13;3.92;;;;;;;;;;5007899;28;20339;-67
2023/05/18 14:29:01;;;;;;;;;;;;;;;;;;5009826;28;20136;-67
2023/05/18 14:31:26;;;;;;;5.65;1.48;;;;;;;;;;5008128;28;19996;-68
2023/05/18 14:33:51;;;;;;;8.85;2.60;;;;;;;;;;5006678;28;20026;-67